createdAt,value
2019-05-20T00:02:28.333Z,98169.69
2019-05-20T00:04:59.841Z,98166.47
2019-05-20T00:07:32.258Z,98172.75
2019-05-20T00:10:05.273Z,98173.22
2019-05-20T00:12:37.738Z,98172.74
2019-05-20T00:15:10.196Z,98172.40
2019-05-20T00:17:42.656Z,98169.66
2019-05-20T00:20:15.453Z,98170.77
2019-05-20T00:22:47.808Z,98165.47
2019-05-20T00:25:20.205Z,98163.22
2019-05-20T00:27:52.644Z,98159.49
2019-05-20T00:30:25.124Z,98166.09
2019-05-20T00:32:57.550Z,98169.45
2019-05-20T00:35:29.948Z,98164.16
2019-05-20T00:38:02.380Z,98163.17
2019-05-20T00:40:34.777Z,98164.11
2019-05-20T00:43:07.208Z,98158.31
2019-05-20T00:45:39.604Z,98166.03
2019-05-20T00:48:11.954Z,98159.12
2019-05-20T00:50:44.353Z,98152.84
2019-05-20T00:53:16.777Z,98158.16
2019-05-20T00:55:49.271Z,98153.00
2019-05-20T00:58:21.717Z,98157.67
2019-05-20T01:00:54.153Z,98146.72
2019-05-20T01:03:26.664Z,98153.02
2019-05-20T01:05:59.043Z,98154.29
2019-05-20T01:08:31.477Z,98158.47
2019-05-20T01:11:03.879Z,98148.64
2019-05-20T01:13:36.319Z,98147.03
2019-05-20T01:16:09.729Z,98146.50
2019-05-20T01:18:42.318Z,98140.91
2019-05-20T01:21:14.717Z,98147.63
2019-05-20T01:23:47.211Z,98146.05
2019-05-20T01:26:19.623Z,98140.39
2019-05-20T01:28:52.098Z,98140.70
2019-05-20T01:31:24.686Z,98140.39
2019-05-20T01:33:57.091Z,98142.77
2019-05-20T01:36:29.508Z,98141.47
2019-05-20T01:39:01.917Z,98137.46
2019-05-20T01:41:35.594Z,98140.99
2019-05-20T01:44:07.990Z,98145.95
2019-05-20T01:46:40.348Z,98143.36
2019-05-20T01:49:12.686Z,98149.32
2019-05-20T01:51:45.116Z,98154.12
2019-05-20T01:54:17.539Z,98147.01
2019-05-20T01:56:49.893Z,98146.69
2019-05-20T01:59:22.383Z,98142.51
2019-05-20T02:01:55.722Z,98130.31
2019-05-20T02:04:28.120Z,98130.44
2019-05-20T02:07:00.479Z,98135.89
2019-05-20T02:09:32.899Z,98132.33
2019-05-20T02:12:05.302Z,98127.34
2019-05-20T02:14:43.331Z,98133.41
2019-05-20T02:17:15.652Z,98134.05
2019-05-20T02:19:48.108Z,98134.19
2019-05-20T02:22:20.436Z,98129.22
2019-05-20T02:24:52.784Z,98131.64
2019-05-20T02:27:25.213Z,98130.98
2019-05-20T02:29:57.642Z,98131.44
2019-05-20T02:32:30.064Z,98131.11
2019-05-20T02:35:02.466Z,98129.66
2019-05-20T02:37:34.892Z,98124.17
2019-05-20T02:40:08.038Z,98124.95
2019-05-20T02:42:40.375Z,98119.98
2019-05-20T02:45:12.801Z,98120.64
2019-05-20T02:47:45.229Z,98125.13
2019-05-20T02:50:17.633Z,98124.61
2019-05-20T02:52:50.097Z,98130.72
2019-05-20T02:55:22.631Z,98131.97
2019-05-20T02:57:55.111Z,98128.72
2019-05-20T03:00:27.509Z,98134.81
2019-05-20T03:02:59.938Z,98127.27
2019-05-20T03:05:32.264Z,98125.00
2019-05-20T03:08:04.688Z,98127.70
2019-05-20T03:10:37.094Z,98127.91
2019-05-20T03:13:10.425Z,98127.38
2019-05-20T03:15:42.889Z,98133.13
2019-05-20T03:18:15.394Z,98136.63
2019-05-20T03:20:47.810Z,98137.58
2019-05-20T03:23:20.223Z,98138.19
2019-05-20T03:25:52.650Z,98140.06
2019-05-20T03:28:25.102Z,98146.32
2019-05-20T03:30:57.472Z,98142.28
2019-05-20T03:33:30.036Z,98140.19
2019-05-20T03:36:02.369Z,98136.49
2019-05-20T03:38:34.780Z,98143.08
2019-05-20T03:41:07.179Z,98142.61
2019-05-20T03:43:39.595Z,98138.12
2019-05-20T03:46:12.002Z,98134.58
2019-05-20T03:48:45.430Z,98136.18
2019-05-20T03:51:17.760Z,98143.38
2019-05-20T03:53:50.187Z,98145.34
2019-05-20T03:56:22.595Z,98148.70
2019-05-20T03:58:55.029Z,98153.69
2019-05-20T04:01:29.006Z,98146.63
2019-05-20T04:04:01.432Z,98150.78
2019-05-20T04:06:33.835Z,98154.14
2019-05-20T04:09:07.557Z,98160.08
2019-05-20T04:11:40.042Z,98162.00
2019-05-20T04:14:12.488Z,98162.99
2019-05-20T04:16:44.907Z,98163.50
2019-05-20T04:19:17.359Z,98164.47
2019-05-20T04:21:49.751Z,98158.69
2019-05-20T04:24:22.171Z,98166.42
2019-05-20T04:26:59.045Z,98160.62
2019-05-20T04:29:31.612Z,98161.09
2019-05-20T04:32:04.050Z,98164.16
2019-05-20T04:34:36.545Z,98159.65
2019-05-20T04:37:08.991Z,98164.14
2019-05-20T04:39:41.371Z,98152.91
2019-05-20T04:42:13.775Z,98152.74
2019-05-20T04:44:46.197Z,98149.38
2019-05-20T04:47:18.596Z,98152.25
2019-05-20T04:49:51.008Z,98151.16
2019-05-20T04:52:23.405Z,98148.89
2019-05-20T04:54:55.827Z,98149.93
2019-05-20T04:57:28.220Z,98143.22
2019-05-20T05:00:00.675Z,98142.77
2019-05-20T05:02:34.232Z,98146.45
2019-05-20T05:05:07.255Z,98148.70
2019-05-20T05:07:39.647Z,98156.39
2019-05-20T05:10:12.077Z,98157.72
2019-05-20T05:12:44.465Z,98154.34
2019-05-20T05:15:16.890Z,98157.56
2019-05-20T05:17:49.324Z,98157.10
2019-05-20T05:20:21.730Z,98156.33
2019-05-20T05:22:54.134Z,98157.48
2019-05-20T05:25:26.553Z,98155.71
2019-05-20T05:27:58.954Z,98160.38
2019-05-20T05:30:31.378Z,98167.30
2019-05-20T05:33:03.724Z,98164.73
2019-05-20T05:35:36.136Z,98160.75
2019-05-20T05:38:08.789Z,98169.56
2019-05-20T05:40:41.391Z,98172.49
2019-05-20T05:43:13.801Z,98180.37
2019-05-20T05:45:46.237Z,98183.09
2019-05-20T05:48:18.638Z,98185.20
2019-05-20T05:50:51.066Z,98180.86
2019-05-20T05:53:23.477Z,98184.58
2019-05-20T05:55:55.896Z,98190.20
2019-05-20T05:58:28.674Z,98191.19
2019-05-20T06:01:01.098Z,98189.59
2019-05-20T06:03:33.498Z,98187.03
2019-05-20T06:06:12.397Z,98195.72
2019-05-20T06:08:40.053Z,98199.57
2019-05-20T06:11:12.474Z,98197.19
2019-05-20T06:13:44.834Z,98198.20
2019-05-20T06:16:34.999Z,98202.39
2019-05-20T06:18:51.470Z,98202.09
2019-05-20T06:21:23.824Z,98203.39
2019-05-20T06:23:56.347Z,98201.34
2019-05-20T06:26:28.751Z,98207.48
2019-05-20T06:29:03.066Z,98206.87
2019-05-20T06:31:35.363Z,98211.72
2019-05-20T06:34:07.754Z,98217.68
2019-05-20T06:36:44.200Z,98218.55
2019-05-20T06:39:16.608Z,98219.23
2019-05-20T06:41:49.019Z,98219.56
2019-05-20T06:44:21.425Z,98214.62
2019-05-20T06:46:53.849Z,98213.51
2019-05-20T06:49:26.250Z,98210.82
2019-05-20T06:51:58.667Z,98211.30
2019-05-20T06:54:31.053Z,98211.33
2019-05-20T06:57:03.570Z,98213.15
2019-05-20T06:59:35.999Z,98217.19
2019-05-20T07:02:08.429Z,98214.48
2019-05-20T07:04:40.837Z,98218.68
2019-05-20T07:07:20.866Z,98215.47
2019-05-20T07:09:48.448Z,98222.38
2019-05-20T07:12:20.966Z,98226.23
2019-05-20T07:14:53.378Z,98224.64
2019-05-20T07:17:25.801Z,98222.71
2019-05-20T07:19:58.354Z,98221.75
2019-05-20T07:22:30.829Z,98229.16
2019-05-20T07:25:03.373Z,98225.48
2019-05-20T07:27:37.098Z,98226.00
2019-05-20T07:30:09.513Z,98233.27
2019-05-20T07:32:42.084Z,98235.22
2019-05-20T07:35:28.711Z,98229.92
2019-05-20T07:37:49.016Z,98227.34
2019-05-20T07:40:34.169Z,98224.15
2019-05-20T07:43:06.665Z,98219.78
2019-05-20T07:45:39.078Z,98218.50
2019-05-20T07:48:11.514Z,98219.96
2019-05-20T07:50:44.087Z,98217.38
2019-05-20T07:53:16.618Z,98215.26
2019-05-20T07:55:58.777Z,98219.63
2019-05-20T07:58:33.586Z,98217.70
2019-05-20T08:01:05.366Z,98216.56
2019-05-20T08:03:38.774Z,98213.84
2019-05-20T08:06:11.438Z,98217.53
2019-05-20T08:08:43.897Z,98222.52
2019-05-20T08:11:16.309Z,98227.83
2019-05-20T08:13:48.779Z,98230.45
2019-05-20T08:16:21.253Z,98235.26
2019-05-20T08:18:53.827Z,98237.68
2019-05-20T08:21:26.268Z,98238.64
2019-05-20T08:23:58.701Z,98239.59
2019-05-20T08:26:31.164Z,98244.11
2019-05-20T08:29:03.600Z,98242.31
2019-05-20T08:31:37.101Z,98244.88
2019-05-20T08:34:10.431Z,98245.34
2019-05-20T08:36:42.843Z,98250.14
2019-05-20T08:39:15.362Z,98248.17
2019-05-20T08:41:47.768Z,98250.75
2019-05-20T08:44:20.207Z,98251.38
2019-05-20T08:46:52.649Z,98251.88
2019-05-20T08:49:25.148Z,98255.59
2019-05-20T08:51:57.496Z,98254.80
2019-05-20T08:54:30.103Z,98256.77
2019-05-20T08:57:03.179Z,98258.05
2019-05-20T08:59:35.701Z,98257.26
2019-05-20T09:02:08.234Z,98260.81
2019-05-20T09:04:40.674Z,98255.84
2019-05-20T09:07:13.089Z,98254.72
2019-05-20T09:09:45.594Z,98249.88
2019-05-20T09:12:18.035Z,98247.33
2019-05-20T09:14:50.365Z,98250.22
2019-05-20T09:17:22.774Z,98250.87
2019-05-20T09:19:55.240Z,98254.89
2019-05-20T09:22:27.671Z,98253.63
2019-05-20T09:25:00.473Z,98251.70
2019-05-20T09:27:33.144Z,98253.63
2019-05-20T09:30:06.518Z,98255.06
2019-05-20T09:32:43.079Z,98258.63
2019-05-20T09:35:14.312Z,98255.57
2019-05-20T09:37:46.719Z,98253.00
2019-05-20T09:40:39.864Z,98254.43
2019-05-20T09:43:12.352Z,98255.58
2019-05-20T09:45:44.828Z,98257.98
2019-05-20T09:48:17.241Z,98260.40
2019-05-20T09:50:49.713Z,98256.39
2019-05-20T09:53:22.235Z,98261.86
2019-05-20T09:55:54.697Z,98266.36
2019-05-20T09:58:27.241Z,98265.56
2019-05-20T10:00:59.692Z,98269.25
2019-05-20T10:03:32.202Z,98268.63
2019-05-20T10:06:04.580Z,98269.59
2019-05-20T10:08:44.219Z,98270.37
2019-05-20T10:11:12.179Z,98273.91
2019-05-20T10:13:44.607Z,98279.41
2019-05-20T10:16:17.042Z,98274.89
2019-05-20T10:18:49.490Z,98274.73
2019-05-20T10:21:21.933Z,98276.52
2019-05-20T10:23:54.352Z,98273.45
2019-05-20T10:26:26.850Z,98276.66
2019-05-20T10:28:59.260Z,98284.39
2019-05-20T10:31:31.730Z,98280.05
2019-05-20T10:34:04.195Z,98279.70
2019-05-20T10:36:36.641Z,98279.72
2019-05-20T10:39:09.028Z,98287.59
2019-05-20T10:41:41.461Z,98285.67
2019-05-20T10:44:13.887Z,98286.96
2019-05-20T10:46:46.328Z,98287.92
2019-05-20T10:49:18.741Z,98287.42
2019-05-20T10:51:51.219Z,98287.27
2019-05-20T10:54:23.637Z,98287.88
2019-05-20T10:56:59.391Z,98282.23
2019-05-20T10:59:30.196Z,98288.36
2019-05-20T11:02:02.669Z,98283.98
2019-05-20T11:04:35.643Z,98288.98
2019-05-20T11:07:08.158Z,98295.91
2019-05-20T11:09:40.493Z,98297.36
2019-05-20T11:12:12.945Z,98299.45
2019-05-20T11:14:45.385Z,98301.73
2019-05-20T11:17:17.802Z,98301.56
2019-05-20T11:19:50.234Z,98306.88
2019-05-20T11:22:22.743Z,98302.06
2019-05-20T11:24:55.175Z,98302.35
2019-05-20T11:27:28.693Z,98303.48
2019-05-20T11:30:01.111Z,98307.36
2019-05-20T11:32:34.801Z,98310.41
2019-05-20T11:35:07.925Z,98302.66
2019-05-20T11:37:40.364Z,98305.89
2019-05-20T11:40:13.714Z,98310.42
2019-05-20T11:42:46.720Z,98306.23
2019-05-20T11:45:20.147Z,98305.92
2019-05-20T11:47:52.601Z,98304.31
2019-05-20T11:50:25.018Z,98307.05
2019-05-20T11:52:59.008Z,98305.77
2019-05-20T11:55:33.047Z,98309.80
2019-05-20T11:58:15.408Z,98298.69
2019-05-20T12:00:39.601Z,98301.42
2019-05-20T12:03:12.081Z,98298.86
2019-05-20T12:05:44.553Z,98296.77
2019-05-20T12:08:17.067Z,98292.73
2019-05-20T12:10:49.479Z,98290.32
2019-05-20T12:13:21.918Z,98288.88
2019-05-20T12:15:54.342Z,98294.17
2019-05-20T12:18:26.733Z,98294.17
2019-05-20T12:20:59.168Z,98295.79
2019-05-20T12:23:31.534Z,98294.98
2019-05-20T12:26:04.150Z,98295.45
2019-05-20T12:28:36.665Z,98298.21
2019-05-20T12:31:09.155Z,98295.31
2019-05-20T12:33:42.658Z,98295.78
2019-05-20T12:36:15.070Z,98286.45
2019-05-20T12:38:47.513Z,98288.52
2019-05-20T12:41:19.953Z,98283.86
2019-05-20T12:44:09.881Z,98283.70
2019-05-20T12:46:27.447Z,98284.50
2019-05-20T12:48:59.926Z,98280.14
2019-05-20T12:51:32.450Z,98277.27
2019-05-20T12:54:04.888Z,98278.71
2019-05-20T12:56:37.317Z,98272.58
2019-05-20T12:59:09.764Z,98273.88
2019-05-20T13:01:42.291Z,98270.47
2019-05-20T13:04:14.827Z,98274.52
2019-05-20T13:06:47.308Z,98275.95
2019-05-20T13:09:19.772Z,98274.20
2019-05-20T13:11:52.287Z,98276.44
2019-05-20T13:14:24.808Z,98281.91
2019-05-20T13:16:57.238Z,98288.52
2019-05-20T13:19:29.694Z,98294.02
2019-05-20T13:22:03.939Z,98293.05
2019-05-20T13:24:36.633Z,98290.78
2019-05-20T13:27:09.050Z,98289.83
2019-05-20T13:29:41.505Z,98287.89
2019-05-20T13:32:13.927Z,98284.50
2019-05-20T13:34:46.374Z,98285.14
2019-05-20T13:37:18.785Z,98284.67
2019-05-20T13:39:54.134Z,98283.20
2019-05-20T13:42:26.551Z,98285.16
2019-05-20T13:44:58.994Z,98283.22
2019-05-20T13:47:31.429Z,98283.38
2019-05-20T13:50:03.896Z,98280.64
2019-05-20T13:52:36.316Z,98283.20
2019-05-20T13:55:08.844Z,98284.66
2019-05-20T13:57:41.264Z,98285.30
2019-05-20T14:00:13.762Z,98278.22
2019-05-20T14:02:46.260Z,98278.23
2019-05-20T14:05:18.713Z,98279.20
2019-05-20T14:07:51.146Z,98276.48
2019-05-20T14:10:23.563Z,98276.31
2019-05-20T14:12:56.008Z,98280.34
2019-05-20T14:15:28.453Z,98283.58
2019-05-20T14:18:01.758Z,98285.02
2019-05-20T14:20:34.287Z,98283.09
2019-05-20T14:23:06.709Z,98293.41
2019-05-20T14:25:39.144Z,98293.55
2019-05-20T14:28:11.645Z,98295.66
2019-05-20T14:30:44.186Z,98298.89
2019-05-20T14:33:16.684Z,98304.70
2019-05-20T14:35:49.189Z,98302.61
2019-05-20T14:38:21.763Z,98301.95
2019-05-20T14:40:54.217Z,98304.39
2019-05-20T14:43:26.793Z,98305.36
2019-05-20T14:45:59.468Z,98312.11
2019-05-20T14:48:31.865Z,98305.48
2019-05-20T14:51:04.305Z,98305.84
2019-05-20T14:53:36.708Z,98309.54
2019-05-20T14:56:09.154Z,98309.70
2019-05-20T14:58:41.610Z,98310.17
2019-05-20T15:01:14.053Z,98308.89
2019-05-20T15:03:46.491Z,98310.18
2019-05-20T15:06:19.007Z,98315.83
2019-05-20T15:08:51.425Z,98317.58
2019-05-20T15:11:37.197Z,98318.38
2019-05-20T15:14:00.467Z,98325.00
2019-05-20T15:16:32.418Z,98326.44
2019-05-20T15:19:04.920Z,98325.60
2019-05-20T15:21:37.450Z,98334.16
2019-05-20T15:24:11.021Z,98342.70
2019-05-20T15:26:43.609Z,98338.81
2019-05-20T15:29:27.551Z,98343.01
2019-05-20T15:31:50.393Z,98346.08
2019-05-20T15:34:22.817Z,98347.34
2019-05-20T15:36:55.257Z,98352.02
2019-05-20T15:39:27.597Z,98356.53
2019-05-20T15:42:00.098Z,98349.45
2019-05-20T15:44:33.582Z,98353.64
2019-05-20T15:47:06.016Z,98344.63
2019-05-20T15:49:38.633Z,98345.09
2019-05-20T15:52:11.173Z,98341.22
2019-05-20T15:54:43.607Z,98344.77
2019-05-20T15:57:16.078Z,98339.95
2019-05-20T15:59:48.511Z,98333.32
2019-05-20T16:02:20.949Z,98332.35
2019-05-20T16:04:53.392Z,98333.00
2019-05-20T16:07:26.894Z,98329.92
2019-05-20T16:09:59.388Z,98334.59
2019-05-20T16:12:34.285Z,98333.32
2019-05-20T16:15:06.803Z,98339.27
2019-05-20T16:17:39.161Z,98337.50
2019-05-20T16:20:11.672Z,98340.41
2019-05-20T16:22:44.264Z,98337.16
2019-05-20T16:25:16.696Z,98335.73
2019-05-20T16:27:49.141Z,98330.71
2019-05-20T16:30:21.511Z,98334.44
2019-05-20T16:32:53.912Z,98336.84
2019-05-20T16:35:26.327Z,98333.80
2019-05-20T16:37:58.828Z,98341.04
2019-05-20T16:40:31.373Z,98340.37
2019-05-20T16:43:03.976Z,98337.30
2019-05-20T16:45:36.389Z,98336.17
2019-05-20T16:48:08.806Z,98341.03
2019-05-20T16:50:41.233Z,98341.83
2019-05-20T16:53:13.720Z,98337.30
2019-05-20T16:55:46.814Z,98334.56
2019-05-20T16:58:19.361Z,98344.40
2019-05-20T17:00:51.786Z,98352.92
2019-05-20T17:03:24.824Z,98351.16
2019-05-20T17:05:57.305Z,98354.69
2019-05-20T17:08:30.119Z,98356.30
2019-05-20T17:11:02.604Z,98356.78
2019-05-20T17:13:35.090Z,98354.69
2019-05-20T17:16:07.605Z,98351.16
2019-05-20T17:18:40.190Z,98359.18
2019-05-20T17:21:12.745Z,98353.55
2019-05-20T17:23:45.188Z,98353.39
2019-05-20T17:26:17.609Z,98362.57
2019-05-20T17:28:52.881Z,98364.14
2019-05-20T17:31:26.714Z,98371.09
2019-05-20T17:33:59.533Z,98369.97
2019-05-20T17:36:31.973Z,98370.42
2019-05-20T17:39:05.791Z,98373.98
2019-05-20T17:41:38.298Z,98375.91
2019-05-20T17:44:10.831Z,98379.27
2019-05-20T17:46:43.242Z,98380.54
2019-05-20T17:49:15.628Z,98372.17
2019-05-20T17:51:49.122Z,98373.78
2019-05-20T17:54:21.598Z,98386.66
2019-05-20T17:56:53.927Z,98377.98
2019-05-20T17:59:26.305Z,98370.08
2019-05-20T18:01:58.787Z,98368.31
2019-05-20T18:04:31.256Z,98369.58
2019-05-20T18:07:03.677Z,98368.45
2019-05-20T18:09:37.687Z,98367.66
2019-05-20T18:12:10.135Z,98370.55
2019-05-20T18:14:44.278Z,98371.03
2019-05-20T18:17:16.709Z,98372.97
2019-05-20T18:19:50.441Z,98371.98
2019-05-20T18:22:22.905Z,98373.94
2019-05-20T18:24:55.430Z,98368.45
2019-05-20T18:27:27.840Z,98371.19
2019-05-20T18:30:00.292Z,98376.48
2019-05-20T18:32:32.855Z,98376.67
2019-05-20T18:35:05.369Z,98378.27
2019-05-20T18:37:37.832Z,98369.55
2019-05-20T18:40:14.600Z,98373.92
2019-05-20T18:42:44.386Z,98376.02
2019-05-20T18:45:16.841Z,98376.96
2019-05-20T18:47:49.332Z,98381.77
2019-05-20T18:50:21.786Z,98379.84
2019-05-20T18:52:54.275Z,98384.84
2019-05-20T18:55:26.710Z,98385.95
2019-05-20T18:57:59.122Z,98387.07
2019-05-20T19:00:31.631Z,98379.83
2019-05-20T19:03:04.136Z,98385.94
2019-05-20T19:05:36.575Z,98392.05
2019-05-20T19:08:09.002Z,98388.66
2019-05-20T19:10:41.572Z,98393.19
2019-05-20T19:13:14.046Z,98391.56
2019-05-20T19:15:46.490Z,98398.31
2019-05-20T19:18:18.914Z,98401.53
2019-05-20T19:20:51.550Z,98402.64
2019-05-20T19:23:23.979Z,98404.10
2019-05-20T19:25:56.414Z,98406.83
2019-05-20T19:28:29.903Z,98412.30
2019-05-20T19:31:02.355Z,98411.62
2019-05-20T19:33:35.051Z,98414.50
2019-05-20T19:36:07.494Z,98414.97
2019-05-20T19:38:39.904Z,98413.36
2019-05-20T19:41:12.425Z,98412.25
2019-05-20T19:43:44.931Z,98417.56
2019-05-20T19:46:18.602Z,98419.00
2019-05-20T19:48:51.121Z,98425.11
2019-05-20T19:51:23.922Z,98430.73
2019-05-20T19:53:56.399Z,98426.22
2019-05-20T19:56:28.870Z,98424.61
2019-05-20T19:59:01.296Z,98426.20
2019-05-20T20:01:33.825Z,98427.98
2019-05-20T20:04:06.363Z,98429.59
2019-05-20T20:06:38.849Z,98422.50
2019-05-20T20:09:11.253Z,98425.41
2019-05-20T20:11:43.625Z,98425.90
2019-05-20T20:14:16.074Z,98428.78
2019-05-20T20:16:48.540Z,98432.78
2019-05-20T20:19:20.952Z,98435.35
2019-05-20T20:21:53.416Z,98432.94
2019-05-20T20:24:25.827Z,98436.66
2019-05-20T20:26:58.335Z,98436.66
2019-05-20T20:29:30.795Z,98439.55
2019-05-20T20:32:03.279Z,98435.02
2019-05-20T20:34:35.777Z,98437.62
2019-05-20T20:37:08.213Z,98438.70
2019-05-20T20:39:40.578Z,98435.52
2019-05-20T20:42:13.012Z,98436.30
2019-05-20T20:44:45.358Z,98442.25
2019-05-20T20:47:17.761Z,98444.19
2019-05-20T20:49:50.155Z,98448.99
2019-05-20T20:52:22.609Z,98449.30
2019-05-20T20:54:55.119Z,98449.95
2019-05-20T20:57:27.557Z,98450.61
2019-05-20T21:00:00.003Z,98449.62
2019-05-20T21:02:32.517Z,98445.13
2019-05-20T21:05:05.034Z,98445.25
2019-05-20T21:07:37.538Z,98446.54
2019-05-20T21:10:09.954Z,98450.89
2019-05-20T21:12:42.405Z,98450.24
2019-05-20T21:15:14.811Z,98454.44
2019-05-20T21:17:47.368Z,98459.88
2019-05-20T21:20:19.953Z,98463.72
2019-05-20T21:22:52.476Z,98462.45
2019-05-20T21:25:24.967Z,98468.07
2019-05-20T21:27:57.391Z,98465.48
2019-05-20T21:30:29.800Z,98469.84
2019-05-20T21:33:09.212Z,98467.25
2019-05-20T21:35:36.439Z,98467.88
2019-05-20T21:38:08.877Z,98469.64
2019-05-20T21:40:41.292Z,98470.61
2019-05-20T21:43:13.730Z,98474.31
2019-05-20T21:45:46.209Z,98478.64
2019-05-20T21:48:19.089Z,98476.72
2019-05-20T21:50:51.503Z,98478.66
2019-05-20T21:53:23.948Z,98472.35
2019-05-20T21:55:56.460Z,98473.98
2019-05-20T21:58:29.328Z,98476.06
2019-05-20T22:01:01.806Z,98468.48
2019-05-20T22:03:34.712Z,98474.77
2019-05-20T22:06:07.367Z,98473.63
2019-05-20T22:08:40.051Z,98473.16
2019-05-20T22:11:12.470Z,98478.30
2019-05-20T22:13:44.923Z,98467.52
2019-05-20T22:16:17.334Z,98467.67
2019-05-20T22:18:49.788Z,98468.65
2019-05-20T22:21:26.935Z,98463.80
2019-05-20T22:24:02.797Z,98463.82
2019-05-20T22:26:35.226Z,98454.81
2019-05-20T22:29:07.663Z,98451.43
2019-05-20T22:31:40.080Z,98463.63
2019-05-20T22:34:12.504Z,98459.95
2019-05-20T22:36:44.920Z,98464.28
2019-05-20T22:39:17.386Z,98466.68
2019-05-20T22:41:49.882Z,98473.77
2019-05-20T22:44:22.315Z,98482.61
2019-05-20T22:46:54.789Z,98476.47
2019-05-20T22:49:27.219Z,98475.19
2019-05-20T22:51:59.661Z,98472.95
2019-05-20T22:54:32.292Z,98476.48
2019-05-20T22:57:04.705Z,98479.04
2019-05-20T22:59:37.145Z,98482.09
2019-05-20T23:02:09.586Z,98473.09
2019-05-20T23:04:42.009Z,98480.81
2019-05-20T23:07:14.467Z,98476.16
2019-05-20T23:09:46.881Z,98470.84
2019-05-20T23:12:19.351Z,98467.45
2019-05-20T23:14:51.757Z,98465.20
2019-05-20T23:17:24.277Z,98470.65
2019-05-20T23:19:56.713Z,98466.81
2019-05-20T23:22:29.224Z,98460.68
2019-05-20T23:25:01.670Z,98456.34
2019-05-20T23:27:34.075Z,98455.70
2019-05-20T23:30:07.683Z,98455.05
2019-05-20T23:32:40.153Z,98464.20
2019-05-20T23:35:12.589Z,98462.11
2019-05-20T23:37:45.032Z,98450.38
2019-05-20T23:40:17.393Z,98454.89
2019-05-20T23:42:49.802Z,98454.07
2019-05-20T23:45:22.237Z,98451.19
2019-05-20T23:47:54.651Z,98455.50
2019-05-20T23:50:27.087Z,98455.86
2019-05-20T23:52:59.499Z,98459.52
2019-05-20T23:55:33.341Z,98463.22
2019-05-20T23:58:05.684Z,98465.80
